Orasund — OXBU2 — position and weather

sailwx.info

Track history (hours):
 
Tides and Currents Weather Stations Pressure Air Temp Water Temp Dewpoint Dewpoint Depression Visibility Wind Speed Wind Dir Waves Ship Positions

Orasund

Last reported at 2018-Aug-15 02:30 UTC. Time now 2018-Aug-15 02:58 UTC.
Position N 51°20' E 003°13'.

Length 106 m; draft 6.5 m.

Type: Ship (hazmat cat D). MMSI: 220514000.

Date/timePositionNaut miles runAvg speedWind from/ knotsBaromVisibWave heightAir tempDewpointWater temp
2018-Aug-15 02:30N 51°20' E 003°13'1 2.0
2018-Aug-15 01:58N 51°19' E 003°13'0 0.0
2018-Aug-15 01:30N 51°19' E 003°13'0 0.0
2018-Aug-15 00:54N 51°19' E 003°13'0 0.0
2018-Aug-15 00:30N 51°19' E 003°13'0 0.0
2018-Aug-15 00:00N 51°19' E 003°13'0 0.0
2018-Aug-14 23:30N 51°19' E 003°13'0 0.0
2018-Aug-14 22:59N 51°19' E 003°13'0 0.0
2018-Aug-14 22:29N 51°19' E 003°13'0 0.0
2018-Aug-14 21:59N 51°19' E 003°13'0 0.0
2018-Aug-14 21:29N 51°19' E 003°13'0 0.0
2018-Aug-14 20:59N 51°19' E 003°13'0 0.0
2018-Aug-14 20:16N 51°19' E 003°13'0 0.0
2018-Aug-14 19:58N 51°19' E 003°13'0 0.0
2018-Aug-14 19:28N 51°19' E 003°13'0 0.0
2018-Aug-14 18:58N 51°19' E 003°13'0 0.0
2018-Aug-14 18:30N 51°19' E 003°13'0 0.0
2018-Aug-14 17:51N 51°19' E 003°13'0 0.0
2018-Aug-14 17:27N 51°19' E 003°13'0 0.0
2018-Aug-14 16:57N 51°19' E 003°13'0 0.0
2018-Aug-14 16:27N 51°19' E 003°13'0 0.0
2018-Aug-14 15:56N 51°19' E 003°13'0 0.0
2018-Aug-14 15:23N 51°19' E 003°13'0 0.0
2018-Aug-14 14:47N 51°19' E 003°13'0 0.0
2018-Aug-14 14:14N 51°19' E 003°13'0 0.0
2018-Aug-14 13:59N 51°19' E 003°13'0 0.0
2018-Aug-14 13:29N 51°19' E 003°13'0 0.0
2018-Aug-14 12:59N 51°19' E 003°13'0 0.0
2018-Aug-14 12:23N 51°19' E 003°13'0 0.0
2018-Aug-14 11:59N 51°19' E 003°13'0 0.0
2018-Aug-14 11:29N 51°19' E 003°13'0 0.0
2018-Aug-14 10:58N 51°19' E 003°13'0 0.0
2018-Aug-14 10:28N 51°19' E 003°13'0 0.0
2018-Aug-14 09:58N 51°19' E 003°13'0 0.0
2018-Aug-14 09:28N 51°19' E 003°13'0 0.0
2018-Aug-14 08:57N 51°19' E 003°13'0 0.0
2018-Aug-14 08:24N 51°19' E 003°13'0 0.0
2018-Aug-14 07:51N 51°19' E 003°13'0 0.0
2018-Aug-14 07:27N 51°19' E 003°13'0 0.0
2018-Aug-14 07:00N 51°19' E 003°13'0 0.0
2018-Aug-14 06:29N 51°19' E 003°13'0 0.0
2018-Aug-14 05:56N 51°19' E 003°13'0 0.0
2018-Aug-14 05:20N 51°19' E 003°13'0 0.0
2018-Aug-14 04:56N 51°19' E 003°13'0 0.0
2018-Aug-14 04:28N 51°19' E 003°13'0 0.0
2018-Aug-14 03:58N 51°19' E 003°13'0 0.0
2018-Aug-14 03:28N 51°19' E 003°13'0 0.0
2018-Aug-14 02:49N 51°19' E 003°13'0 0.0
2018-Aug-14 02:25N 51°19' E 003°13'0 0.0
2018-Aug-14 02:00N 51°19' E 003°13'0 0.0
2018-Aug-14 01:27N 51°19' E 003°13'0 0.0
2018-Aug-14 00:54N 51°19' E 003°13'0 0.0
2018-Aug-14 00:27N 51°19' E 003°13'0 0.0
2018-Aug-13 23:57N 51°19' E 003°13'0 0.0
2018-Aug-13 23:29N 51°19' E 003°13'0 0.0
2018-Aug-13 22:59N 51°19' E 003°13'0 0.0
2018-Aug-13 22:29N 51°19' E 003°13'0 0.0
2018-Aug-13 21:50N 51°19' E 003°13'0 0.0
2018-Aug-13 21:28N 51°19' E 003°13'0 0.0
2018-Aug-13 20:58N 51°19' E 003°13'0 0.0
2018-Aug-13 20:25N 51°19' E 003°13'0 0.0
2018-Aug-13 19:55N 51°19' E 003°13'0 0.0
2018-Aug-13 19:28N 51°19' E 003°13'0 0.0
2018-Aug-13 18:57N 51°19' E 003°13'0 0.0
2018-Aug-13 18:30N 51°19' E 003°13'1 2.3
2018-Aug-13 18:00N 51°20' E 003°13'0 0.1
2018-Aug-13 17:30N 51°20' E 003°13'0 0.2
2018-Aug-13 17:00N 51°20' E 003°13'3 4.9
2018-Aug-13 16:30N 51°22' E 003°11'713.9
2018-Aug-13 16:00N 51°22' E 002°60'715.0
2018-Aug-13 15:30N 51°21' E 002°48'4 7.0
2018-Aug-13 14:57N 51°22' E 002°42'2 4.8
2018-Aug-13 14:31N 51°22' E 002°39'4 6.9
2018-Aug-13 13:57N 51°22' E 002°32'4 8.9
2018-Aug-13 13:30N 51°21' E 002°26'713.7
2018-Aug-13 13:00N 51°17' E 002°17'815.9
2018-Aug-13 12:29N 51°13' E 002°06'815.6
2018-Aug-13 12:00N 51°09' E 001°56'815.1
2018-Aug-13 11:30N 51°05' E 001°46'715.0
2018-Aug-13 11:00N 50°59' E 001°38'714.1
2018-Aug-13 10:30N 50°54' E 001°30'713.1
2018-Aug-13 10:00N 50°48' E 001°27'8212.4
2018-Aug-13 03:25N 50°12' W 000°29'9614.2
2018-Aug-12 20:38N 49°47' W 002°53'816.5
2018-Aug-12 20:08N 49°43' W 003°04'816.3
2018-Aug-12 19:40N 49°39' W 003°14'316.4
2018-Aug-12 19:30N 49°38' W 003°18'7915.8
2018-Aug-12 14:29N 48°58' W 005°03'714.4
2018-Aug-12 14:00N 48°54' W 005°12'713.9
2018-Aug-12 13:30N 48°51' W 005°21'713.4
2018-Aug-12 13:00N 48°48' W 005°30'9011.6
2018-Aug-12 05:13N 47°19' W 005°04'313.4
2018-Aug-12 04:59N 47°16' W 005°02'613.5
2018-Aug-12 04:30N 47°10' W 004°59'713.6
2018-Aug-12 03:58N 47°03' W 004°55'613.5
2018-Aug-12 03:29N 46°57' W 004°52'713.4
2018-Aug-12 02:59N 46°51' W 004°49'713.8
2018-Aug-12 02:30N 46°44' W 004°46'713.4
2018-Aug-12 01:57N 46°37' W 004°42'713.5
2018-Aug-12 01:24N 46°30' W 004°38'614.2
2018-Aug-12 01:00N 46°25' W 004°36'814.6
2018-Aug-12 00:28N 46°18' W 004°32'814.6
2018-Aug-11 23:54N 46°10' W 004°28'614.2
2018-Aug-11 23:27N 46°04' W 004°24'614.0
2018-Aug-11 23:01N 45°58' W 004°21'713.8
2018-Aug-11 22:30N 45°52' W 004°18'713.8
2018-Aug-11 22:00N 45°45' W 004°15'1514.9
2018-Aug-11 21:02N 45°31' W 004°09'0 2.0
2018-Aug-11 20:56N 45°31' W 004°09'11114.1
2018-Aug-11 13:05N 43°47' W 003°16'214.2
2018-Aug-11 12:57N 43°45' W 003°16'614.0
2018-Aug-11 12:30N 43°39' W 003°13'713.8
2018-Aug-11 12:00N 43°32' W 003°10'713.4
2018-Aug-11 11:30N 43°26' W 003°07'4 7.8
2018-Aug-11 10:59N 43°22' W 003°06'0 0.0
2018-Aug-11 10:29N 43°22' W 003°06'0 0.0
2018-Aug-11 09:56N 43°22' W 003°06'0 0.0
2018-Aug-11 09:29N 43°22' W 003°06'0 0.0
2018-Aug-11 08:58N 43°22' W 003°06'0 0.0
2018-Aug-11 08:28N 43°22' W 003°06'0 0.0
2018-Aug-11 07:58N 43°22' W 003°06'0 0.0
2018-Aug-11 07:28N 43°22' W 003°06'0 0.0
2018-Aug-11 07:01N 43°22' W 003°06'0 0.0
2018-Aug-11 06:30N 43°22' W 003°06'0 0.0
2018-Aug-11 06:00N 43°22' W 003°06'0 0.0
2018-Aug-11 05:30N 43°22' W 003°06'0 0.0
2018-Aug-11 05:00N 43°22' W 003°06'0 0.0
2018-Aug-11 04:29N 43°22' W 003°06'0 0.0
2018-Aug-11 03:59N 43°22' W 003°06'0 0.0
2018-Aug-11 03:29N 43°22' W 003°06'0 0.0
2018-Aug-11 02:59N 43°22' W 003°06'0 0.0
2018-Aug-11 02:29N 43°22' W 003°06'0 0.0
2018-Aug-11 01:58N 43°22' W 003°06'0 0.0
2018-Aug-11 01:28N 43°22' W 003°06'0 0.0
2018-Aug-11 00:58N 43°22' W 003°06'0 0.0
2018-Aug-11 00:28N 43°22' W 003°06'0 0.0
2018-Aug-11 00:00N 43°22' W 003°06'0 0.0
2018-Aug-10 23:30N 43°22' W 003°06'0 0.0
2018-Aug-10 23:00N 43°22' W 003°06'0 0.0
2018-Aug-10 22:30N 43°22' W 003°06'0 0.0
2018-Aug-10 22:00N 43°22' W 003°06'0 0.0
2018-Aug-10 21:29N 43°22' W 003°06'0 0.0
2018-Aug-10 20:56N 43°22' W 003°06'0 0.0
2018-Aug-10 20:29N 43°22' W 003°06'0 0.0
2018-Aug-10 20:00N 43°22' W 003°06'0 0.0
2018-Aug-10 19:29N 43°22' W 003°06'0 0.0
2018-Aug-10 18:59N 43°22' W 003°06'0 0.0
2018-Aug-10 18:29N 43°22' W 003°06'0 0.0
2018-Aug-10 17:53N 43°22' W 003°06'0 0.0
2018-Aug-10 17:29N 43°22' W 003°06'0 0.0
2018-Aug-10 16:58N 43°22' W 003°06'0 0.0
2018-Aug-10 16:28N 43°22' W 003°06'0 0.0
2018-Aug-10 15:58N 43°22' W 003°06'0 0.0
2018-Aug-10 15:28N 43°22' W 003°06'0 0.0
2018-Aug-10 15:01N 43°22' W 003°06'0 0.0
2018-Aug-10 14:30N 43°22' W 003°06'0 0.0
2018-Aug-10 14:00N 43°22' W 003°06'0 0.0
2018-Aug-10 13:30N 43°22' W 003°06'0 0.0
2018-Aug-10 13:00N 43°22' W 003°06'0 0.0
2018-Aug-10 12:30N 43°22' W 003°06'0 0.1
2018-Aug-10 12:00N 43°22' W 003°06'1 1.7
2018-Aug-10 11:30N 43°23' W 003°06'1 1.4
2018-Aug-10 10:59N 43°22' W 003°07'0 0.1
2018-Aug-10 10:28N 43°22' W 003°07'0 0.0
2018-Aug-10 09:58N 43°22' W 003°07'0 0.0
2018-Aug-10 09:28N 43°22' W 003°07'0 0.0
2018-Aug-10 08:58N 43°22' W 003°07'0 0.0
2018-Aug-10 08:30N 43°22' W 003°07'0 0.0
2018-Aug-10 08:00N 43°22' W 003°07'0 0.0
2018-Aug-10 07:30N 43°22' W 003°07'0 0.0
2018-Aug-10 07:00N 43°22' W 003°07'0 0.0
2018-Aug-10 06:30N 43°22' W 003°07'0 0.0
2018-Aug-10 05:59N 43°22' W 003°07'0 0.0
2018-Aug-10 05:29N 43°22' W 003°07'0 0.0
2018-Aug-10 04:59N 43°22' W 003°07'0 0.0
2018-Aug-10 04:29N 43°22' W 003°07'0 0.0
2018-Aug-10 04:00N 43°22' W 003°07'0 0.0
2018-Aug-10 03:28N 43°22' W 003°07'0 0.0
2018-Aug-10 02:58N 43°22' W 003°07'0 0.0
2018-Aug-10 02:28N 43°22' W 003°07'0 0.0
2018-Aug-10 01:58N 43°22' W 003°07'0 0.0
2018-Aug-10 01:30N 43°22' W 003°07'0 0.0
2018-Aug-10 01:00N 43°22' W 003°07'0 0.0
2018-Aug-10 00:30N 43°22' W 003°07'0 0.0
2018-Aug-10 00:00N 43°22' W 003°07'0 0.0
2018-Aug-09 23:30N 43°22' W 003°07'0 0.0
2018-Aug-09 22:59N 43°22' W 003°07'0 0.0
2018-Aug-09 22:29N 43°22' W 003°07'0 0.0
2018-Aug-09 21:59N 43°22' W 003°07'0 0.0
2018-Aug-09 21:29N 43°22' W 003°07'0 0.0
2018-Aug-09 20:58N 43°22' W 003°07'0 0.1
2018-Aug-09 20:28N 43°22' W 003°07'0 0.0
2018-Aug-09 19:58N 43°22' W 003°07'0 0.0
2018-Aug-09 19:28N 43°22' W 003°07'0 0.0
2018-Aug-09 18:58N 43°22' W 003°07'0 0.0
2018-Aug-09 18:27N 43°22' W 003°07'0 0.0
2018-Aug-09 18:00N 43°22' W 003°07'0 0.0
2018-Aug-09 17:30N 43°22' W 003°07'0 0.0
2018-Aug-09 17:00N 43°22' W 003°07'0 0.0
2018-Aug-09 16:30N 43°22' W 003°07'0 0.0
2018-Aug-09 15:59N 43°22' W 003°07'0 0.0
2018-Aug-09 15:29N 43°22' W 003°07'0 0.0
2018-Aug-09 14:59N 43°22' W 003°07'0 0.0
2018-Aug-09 14:29N 43°22' W 003°07'0 0.0
2018-Aug-09 13:58N 43°22' W 003°07'0 0.0
2018-Aug-09 13:28N 43°22' W 003°07'0 0.0
2018-Aug-09 12:58N 43°22' W 003°07'0 0.0
2018-Aug-09 12:28N 43°22' W 003°07'0 0.0
2018-Aug-09 12:01N 43°22' W 003°07'0 0.0
2018-Aug-09 11:30N 43°22' W 003°07'0 0.0
2018-Aug-09 11:00N 43°22' W 003°07'0 0.0
2018-Aug-09 10:30N 43°22' W 003°07'0 0.0
2018-Aug-09 10:00N 43°22' W 003°07'0 0.0
2018-Aug-09 09:29N 43°22' W 003°07'0 0.0
2018-Aug-09 08:59N 43°22' W 003°07'0 0.0
2018-Aug-09 08:29N 43°22' W 003°07'0 0.0
2018-Aug-09 07:59N 43°22' W 003°07'0 0.0
2018-Aug-09 07:29N 43°22' W 003°07'0 0.1
2018-Aug-09 06:58N 43°22' W 003°07'0 0.1
2018-Aug-09 06:28N 43°22' W 003°07'0 0.1
2018-Aug-09 05:58N 43°22' W 003°07'0 0.0
2018-Aug-09 05:28N 43°22' W 003°07'0 0.0
2018-Aug-09 05:01N 43°22' W 003°07'0 0.0
2018-Aug-09 04:30N 43°22' W 003°07'0 0.0
2018-Aug-09 04:00N 43°22' W 003°07'0 0.0
2018-Aug-09 03:30N 43°22' W 003°07'0 0.0
2018-Aug-09 02:57N 43°22' W 003°07'0 0.0
2018-Aug-09 02:29N 43°22' W 003°07'0 0.0
2018-Aug-09 01:56N 43°22' W 003°07'0 0.0
2018-Aug-09 01:26N 43°22' W 003°07'0 0.0
2018-Aug-09 00:59N 43°22' W 003°07'0 0.0
2018-Aug-09 00:29N 43°22' W 003°07'0 0.0
2018-Aug-08 23:58N 43°22' W 003°07'0 0.0
2018-Aug-08 23:28N 43°22' W 003°07'0 0.3
2018-Aug-08 22:58N 43°22' W 003°07'0 0.0
2018-Aug-08 22:28N 43°22' W 003°07'0 0.0
2018-Aug-08 22:00N 43°22' W 003°07'0 0.0
2018-Aug-08 21:30N 43°22' W 003°07'0 0.0
2018-Aug-08 21:00N 43°22' W 003°07'0 0.0
2018-Aug-08 20:30N 43°22' W 003°07'0 0.0
2018-Aug-08 20:00N 43°22' W 003°07'0 0.0
2018-Aug-08 19:29N 43°22' W 003°07'0 0.0
2018-Aug-08 18:59N 43°22' W 003°07'0 0.0
2018-Aug-08 18:29N 43°22' W 003°07'0 0.0
2018-Aug-08 17:59N 43°22' W 003°07'0 0.0
2018-Aug-08 17:28N 43°22' W 003°07'0 0.0
2018-Aug-08 16:58N 43°22' W 003°07'0 0.0
2018-Aug-08 16:28N 43°22' W 003°07'0 0.0
2018-Aug-08 15:58N 43°22' W 003°07'0 0.0
2018-Aug-08 15:28N 43°22' W 003°07'0 0.0
2018-Aug-08 15:00N 43°22' W 003°07'0 0.0
2018-Aug-08 14:30N 43°22' W 003°07'0 0.0
2018-Aug-08 14:00N 43°22' W 003°07'0 0.0
2018-Aug-08 13:30N 43°22' W 003°07'0 0.0
2018-Aug-08 13:00N 43°22' W 003°07'0 0.0
2018-Aug-08 12:26N 43°22' W 003°07'0 0.0
2018-Aug-08 11:50N 43°22' W 003°07'0 0.0
2018-Aug-08 11:29N 43°22' W 003°07'0 0.0
2018-Aug-08 10:59N 43°22' W 003°07'0 0.0
2018-Aug-08 10:28N 43°22' W 003°07'0 0.0
2018-Aug-08 09:58N 43°22' W 003°07'0 0.0
2018-Aug-08 09:28N 43°22' W 003°07'0 0.0
2018-Aug-08 08:55N 43°22' W 003°07'0 0.0
2018-Aug-08 08:28N 43°22' W 003°07'0 0.0
2018-Aug-08 08:00N 43°22' W 003°07'0 0.0
2018-Aug-08 07:30N 43°22' W 003°07'0 0.0
2018-Aug-08 07:00N 43°22' W 003°07'0 0.0
2018-Aug-08 06:30N 43°22' W 003°07'0 0.0
2018-Aug-08 06:00N 43°22' W 003°07'0 0.0
2018-Aug-08 05:26N 43°22' W 003°07'0 0.0
2018-Aug-08 04:59N 43°22' W 003°07'0 0.0
2018-Aug-08 04:29N 43°22' W 003°07'0 0.0
2018-Aug-08 03:59N 43°22' W 003°07'0 0.0
2018-Aug-08 03:25N 43°22' W 003°07'0 0.0
2018-Aug-08 02:58N 43°22' W 003°07'0 0.0
2018-Aug-08 02:28N 43°22' W 003°07'0 0.0
2018-Aug-08 01:58N 43°22' W 003°07'0 0.0
2018-Aug-08 01:29N 43°22' W 003°07'0 0.0
2018-Aug-08 00:51N 43°22' W 003°07'0 0.0
2018-Aug-08 00:27N 43°22' W 003°07'0 0.0
2018-Aug-07 23:57N 43°22' W 003°07'0 0.1
2018-Aug-07 23:30N 43°22' W 003°07'0 0.4
2018-Aug-07 23:00N 43°22' W 003°07'3 5.7
2018-Aug-07 22:30N 43°25' W 003°10'713.6
2018-Aug-07 22:00N 43°31' W 003°14'714.1
2018-Aug-07 21:31N 43°36' W 003°20'713.3
2018-Aug-07 21:00N 43°38' W 003°29'714.2
2018-Aug-07 20:30N 43°39' W 003°39'5314.3
2018-Aug-07 16:48N 43°45' W 004°52'914.5
2018-Aug-07 16:13N 43°45' W 005°03'314.6
2018-Aug-07 16:00N 43°46' W 005°08'714.6
2018-Aug-07 15:29N 43°46' W 005°18'815.0
2018-Aug-07 14:59N 43°47' W 005°29'714.5
2018-Aug-07 14:28N 43°48' W 005°39'1914.1
2018-Aug-07 13:09N 43°49' W 006°05'313.8
2018-Aug-07 12:56N 43°49' W 006°09'64 1.6
2018-Aug-05 20:37N 44°08' W 007°33'1 6.2
2018-Aug-05 20:27N 44°09' W 007°32'4 6.1
2018-Aug-05 19:51N 44°11' W 007°29'2 5.8
2018-Aug-05 19:30N 44°13' W 007°27'3 5.6
2018-Aug-05 18:59N 44°15' W 007°24'5 5.7
2018-Aug-05 18:06N 44°18' W 007°18'1 5.9
2018-Aug-05 17:57N 44°18' W 007°17'3 5.8
2018-Aug-05 17:28N 44°20' W 007°14'3 5.7
2018-Aug-05 17:00N 44°22' W 007°11'4 5.6
2018-Aug-05 16:20N 44°24' W 007°07'15 5.9
2018-Aug-05 13:47N 44°34' W 006°51'2 5.6
2018-Aug-05 13:30N 44°35' W 006°49'3 5.6
2018-Aug-05 13:00N 44°36' W 006°46'83 8.4
2018-Aug-05 03:09N 45°30' W 005°17'314.6
2018-Aug-05 02:56N 45°32' W 005°13'  
Track history (hours):
 
Tides and Currents Weather Stations Pressure Air Temp Water Temp Dewpoint Dewpoint Depression Visibility Wind Speed Wind Dir Waves Ship Positions

Orasund

Last reported at 2018-Aug-15 02:30 UTC. Time now 2018-Aug-15 02:58 UTC.
Position N 51°20' E 003°13'.

Length 106 m; draft 6.5 m.

Type: Ship (hazmat cat D). MMSI: 220514000.

Date/timePositionNaut miles runAvg speedWind from/ knotsBaromVisibWave heightAir tempDewpointWater temp
2018-Aug-15 02:30N 51°20' E 003°13'1 2.0
2018-Aug-15 01:58N 51°19' E 003°13'0 0.0
2018-Aug-15 01:30N 51°19' E 003°13'0 0.0
2018-Aug-15 00:54N 51°19' E 003°13'0 0.0
2018-Aug-15 00:30N 51°19' E 003°13'0 0.0
2018-Aug-15 00:00N 51°19' E 003°13'0 0.0
2018-Aug-14 23:30N 51°19' E 003°13'0 0.0
2018-Aug-14 22:59N 51°19' E 003°13'0 0.0
2018-Aug-14 22:29N 51°19' E 003°13'0 0.0
2018-Aug-14 21:59N 51°19' E 003°13'0 0.0
2018-Aug-14 21:29N 51°19' E 003°13'0 0.0
2018-Aug-14 20:59N 51°19' E 003°13'0 0.0
2018-Aug-14 20:16N 51°19' E 003°13'0 0.0
2018-Aug-14 19:58N 51°19' E 003°13'0 0.0
2018-Aug-14 19:28N 51°19' E 003°13'0 0.0
2018-Aug-14 18:58N 51°19' E 003°13'0 0.0
2018-Aug-14 18:30N 51°19' E 003°13'0 0.0
2018-Aug-14 17:51N 51°19' E 003°13'0 0.0
2018-Aug-14 17:27N 51°19' E 003°13'0 0.0
2018-Aug-14 16:57N 51°19' E 003°13'0 0.0
2018-Aug-14 16:27N 51°19' E 003°13'0 0.0
2018-Aug-14 15:56N 51°19' E 003°13'0 0.0
2018-Aug-14 15:23N 51°19' E 003°13'0 0.0
2018-Aug-14 14:47N 51°19' E 003°13'0 0.0
2018-Aug-14 14:14N 51°19' E 003°13'0 0.0
2018-Aug-14 13:59N 51°19' E 003°13'0 0.0
2018-Aug-14 13:29N 51°19' E 003°13'0 0.0
2018-Aug-14 12:59N 51°19' E 003°13'0 0.0
2018-Aug-14 12:23N 51°19' E 003°13'0 0.0
2018-Aug-14 11:59N 51°19' E 003°13'0 0.0
2018-Aug-14 11:29N 51°19' E 003°13'0 0.0
2018-Aug-14 10:58N 51°19' E 003°13'0 0.0
2018-Aug-14 10:28N 51°19' E 003°13'0 0.0
2018-Aug-14 09:58N 51°19' E 003°13'0 0.0
2018-Aug-14 09:28N 51°19' E 003°13'0 0.0
2018-Aug-14 08:57N 51°19' E 003°13'0 0.0
2018-Aug-14 08:24N 51°19' E 003°13'0 0.0
2018-Aug-14 07:51N 51°19' E 003°13'0 0.0
2018-Aug-14 07:27N 51°19' E 003°13'0 0.0
2018-Aug-14 07:00N 51°19' E 003°13'0 0.0
2018-Aug-14 06:29N 51°19' E 003°13'0 0.0
2018-Aug-14 05:56N 51°19' E 003°13'0 0.0
2018-Aug-14 05:20N 51°19' E 003°13'0 0.0
2018-Aug-14 04:56N 51°19' E 003°13'0 0.0
2018-Aug-14 04:28N 51°19' E 003°13'0 0.0
2018-Aug-14 03:58N 51°19' E 003°13'0 0.0
2018-Aug-14 03:28N 51°19' E 003°13'0 0.0
2018-Aug-14 02:49N 51°19' E 003°13'0 0.0
2018-Aug-14 02:25N 51°19' E 003°13'0 0.0
2018-Aug-14 02:00N 51°19' E 003°13'0 0.0
2018-Aug-14 01:27N 51°19' E 003°13'0 0.0
2018-Aug-14 00:54N 51°19' E 003°13'0 0.0
2018-Aug-14 00:27N 51°19' E 003°13'0 0.0
2018-Aug-13 23:57N 51°19' E 003°13'0 0.0
2018-Aug-13 23:29N 51°19' E 003°13'0 0.0
2018-Aug-13 22:59N 51°19' E 003°13'0 0.0
2018-Aug-13 22:29N 51°19' E 003°13'0 0.0
2018-Aug-13 21:50N 51°19' E 003°13'0 0.0
2018-Aug-13 21:28N 51°19' E 003°13'0 0.0
2018-Aug-13 20:58N 51°19' E 003°13'0 0.0
2018-Aug-13 20:25N 51°19' E 003°13'0 0.0
2018-Aug-13 19:55N 51°19' E 003°13'0 0.0
2018-Aug-13 19:28N 51°19' E 003°13'0 0.0
2018-Aug-13 18:57N 51°19' E 003°13'0 0.0
2018-Aug-13 18:30N 51°19' E 003°13'1 2.3
2018-Aug-13 18:00N 51°20' E 003°13'0 0.1
2018-Aug-13 17:30N 51°20' E 003°13'0 0.2
2018-Aug-13 17:00N 51°20' E 003°13'3 4.9
2018-Aug-13 16:30N 51°22' E 003°11'713.9
2018-Aug-13 16:00N 51°22' E 002°60'715.0
2018-Aug-13 15:30N 51°21' E 002°48'4 7.0
2018-Aug-13 14:57N 51°22' E 002°42'2 4.8
2018-Aug-13 14:31N 51°22' E 002°39'4 6.9
2018-Aug-13 13:57N 51°22' E 002°32'4 8.9
2018-Aug-13 13:30N 51°21' E 002°26'713.7
2018-Aug-13 13:00N 51°17' E 002°17'815.9
2018-Aug-13 12:29N 51°13' E 002°06'815.6
2018-Aug-13 12:00N 51°09' E 001°56'815.1
2018-Aug-13 11:30N 51°05' E 001°46'715.0
2018-Aug-13 11:00N 50°59' E 001°38'714.1
2018-Aug-13 10:30N 50°54' E 001°30'713.1
2018-Aug-13 10:00N 50°48' E 001°27'8212.4
2018-Aug-13 03:25N 50°12' W 000°29'9614.2
2018-Aug-12 20:38N 49°47' W 002°53'816.5
2018-Aug-12 20:08N 49°43' W 003°04'816.3
2018-Aug-12 19:40N 49°39' W 003°14'316.4
2018-Aug-12 19:30N 49°38' W 003°18'7915.8
2018-Aug-12 14:29N 48°58' W 005°03'714.4
2018-Aug-12 14:00N 48°54' W 005°12'713.9
2018-Aug-12 13:30N 48°51' W 005°21'713.4
2018-Aug-12 13:00N 48°48' W 005°30'9011.6
2018-Aug-12 05:13N 47°19' W 005°04'313.4
2018-Aug-12 04:59N 47°16' W 005°02'613.5
2018-Aug-12 04:30N 47°10' W 004°59'713.6
2018-Aug-12 03:58N 47°03' W 004°55'613.5
2018-Aug-12 03:29N 46°57' W 004°52'713.4
2018-Aug-12 02:59N 46°51' W 004°49'713.8
2018-Aug-12 02:30N 46°44' W 004°46'713.4
2018-Aug-12 01:57N 46°37' W 004°42'713.5
2018-Aug-12 01:24N 46°30' W 004°38'614.2
2018-Aug-12 01:00N 46°25' W 004°36'814.6
2018-Aug-12 00:28N 46°18' W 004°32'814.6
2018-Aug-11 23:54N 46°10' W 004°28'614.2
2018-Aug-11 23:27N 46°04' W 004°24'614.0
2018-Aug-11 23:01N 45°58' W 004°21'713.8
2018-Aug-11 22:30N 45°52' W 004°18'713.8
2018-Aug-11 22:00N 45°45' W 004°15'1514.9
2018-Aug-11 21:02N 45°31' W 004°09'0 2.0
2018-Aug-11 20:56N 45°31' W 004°09'11114.1
2018-Aug-11 13:05N 43°47' W 003°16'214.2
2018-Aug-11 12:57N 43°45' W 003°16'614.0
2018-Aug-11 12:30N 43°39' W 003°13'713.8
2018-Aug-11 12:00N 43°32' W 003°10'713.4
2018-Aug-11 11:30N 43°26' W 003°07'4 7.8
2018-Aug-11 10:59N 43°22' W 003°06'0 0.0
2018-Aug-11 10:29N 43°22' W 003°06'0 0.0
2018-Aug-11 09:56N 43°22' W 003°06'0 0.0
2018-Aug-11 09:29N 43°22' W 003°06'0 0.0
2018-Aug-11 08:58N 43°22' W 003°06'0 0.0
2018-Aug-11 08:28N 43°22' W 003°06'0 0.0
2018-Aug-11 07:58N 43°22' W 003°06'0 0.0
2018-Aug-11 07:28N 43°22' W 003°06'0 0.0
2018-Aug-11 07:01N 43°22' W 003°06'0 0.0
2018-Aug-11 06:30N 43°22' W 003°06'0 0.0
2018-Aug-11 06:00N 43°22' W 003°06'0 0.0
2018-Aug-11 05:30N 43°22' W 003°06'0 0.0
2018-Aug-11 05:00N 43°22' W 003°06'0 0.0
2018-Aug-11 04:29N 43°22' W 003°06'0 0.0
2018-Aug-11 03:59N 43°22' W 003°06'0 0.0
2018-Aug-11 03:29N 43°22' W 003°06'0 0.0
2018-Aug-11 02:59N 43°22' W 003°06'0 0.0
2018-Aug-11 02:29N 43°22' W 003°06'0 0.0
2018-Aug-11 01:58N 43°22' W 003°06'0 0.0
2018-Aug-11 01:28N 43°22' W 003°06'0 0.0
2018-Aug-11 00:58N 43°22' W 003°06'0 0.0
2018-Aug-11 00:28N 43°22' W 003°06'0 0.0
2018-Aug-11 00:00N 43°22' W 003°06'0 0.0
2018-Aug-10 23:30N 43°22' W 003°06'0 0.0
2018-Aug-10 23:00N 43°22' W 003°06'0 0.0
2018-Aug-10 22:30N 43°22' W 003°06'0 0.0
2018-Aug-10 22:00N 43°22' W 003°06'0 0.0
2018-Aug-10 21:29N 43°22' W 003°06'0 0.0
2018-Aug-10 20:56N 43°22' W 003°06'0 0.0
2018-Aug-10 20:29N 43°22' W 003°06'0 0.0
2018-Aug-10 20:00N 43°22' W 003°06'0 0.0
2018-Aug-10 19:29N 43°22' W 003°06'0 0.0
2018-Aug-10 18:59N 43°22' W 003°06'0 0.0
2018-Aug-10 18:29N 43°22' W 003°06'0 0.0
2018-Aug-10 17:53N 43°22' W 003°06'0 0.0
2018-Aug-10 17:29N 43°22' W 003°06'0 0.0
2018-Aug-10 16:58N 43°22' W 003°06'0 0.0
2018-Aug-10 16:28N 43°22' W 003°06'0 0.0
2018-Aug-10 15:58N 43°22' W 003°06'0 0.0
2018-Aug-10 15:28N 43°22' W 003°06'0 0.0
2018-Aug-10 15:01N 43°22' W 003°06'0 0.0
2018-Aug-10 14:30N 43°22' W 003°06'0 0.0
2018-Aug-10 14:00N 43°22' W 003°06'0 0.0
2018-Aug-10 13:30N 43°22' W 003°06'0 0.0
2018-Aug-10 13:00N 43°22' W 003°06'0 0.0
2018-Aug-10 12:30N 43°22' W 003°06'0 0.1
2018-Aug-10 12:00N 43°22' W 003°06'1 1.7
2018-Aug-10 11:30N 43°23' W 003°06'1 1.4
2018-Aug-10 10:59N 43°22' W 003°07'0 0.1
2018-Aug-10 10:28N 43°22' W 003°07'0 0.0
2018-Aug-10 09:58N 43°22' W 003°07'0 0.0
2018-Aug-10 09:28N 43°22' W 003°07'0 0.0
2018-Aug-10 08:58N 43°22' W 003°07'0 0.0
2018-Aug-10 08:30N 43°22' W 003°07'0 0.0
2018-Aug-10 08:00N 43°22' W 003°07'0 0.0
2018-Aug-10 07:30N 43°22' W 003°07'0 0.0
2018-Aug-10 07:00N 43°22' W 003°07'0 0.0
2018-Aug-10 06:30N 43°22' W 003°07'0 0.0
2018-Aug-10 05:59N 43°22' W 003°07'0 0.0
2018-Aug-10 05:29N 43°22' W 003°07'0 0.0
2018-Aug-10 04:59N 43°22' W 003°07'0 0.0
2018-Aug-10 04:29N 43°22' W 003°07'0 0.0
2018-Aug-10 04:00N 43°22' W 003°07'0 0.0
2018-Aug-10 03:28N 43°22' W 003°07'0 0.0
2018-Aug-10 02:58N 43°22' W 003°07'0 0.0
2018-Aug-10 02:28N 43°22' W 003°07'0 0.0
2018-Aug-10 01:58N 43°22' W 003°07'0 0.0
2018-Aug-10 01:30N 43°22' W 003°07'0 0.0
2018-Aug-10 01:00N 43°22' W 003°07'0 0.0
2018-Aug-10 00:30N 43°22' W 003°07'0 0.0
2018-Aug-10 00:00N 43°22' W 003°07'0 0.0
2018-Aug-09 23:30N 43°22' W 003°07'0 0.0
2018-Aug-09 22:59N 43°22' W 003°07'0 0.0
2018-Aug-09 22:29N 43°22' W 003°07'0 0.0
2018-Aug-09 21:59N 43°22' W 003°07'0 0.0
2018-Aug-09 21:29N 43°22' W 003°07'0 0.0
2018-Aug-09 20:58N 43°22' W 003°07'0 0.1
2018-Aug-09 20:28N 43°22' W 003°07'0 0.0
2018-Aug-09 19:58N 43°22' W 003°07'0 0.0
2018-Aug-09 19:28N 43°22' W 003°07'0 0.0
2018-Aug-09 18:58N 43°22' W 003°07'0 0.0
2018-Aug-09 18:27N 43°22' W 003°07'0 0.0
2018-Aug-09 18:00N 43°22' W 003°07'0 0.0
2018-Aug-09 17:30N 43°22' W 003°07'0 0.0
2018-Aug-09 17:00N 43°22' W 003°07'0 0.0
2018-Aug-09 16:30N 43°22' W 003°07'0 0.0
2018-Aug-09 15:59N 43°22' W 003°07'0 0.0
2018-Aug-09 15:29N 43°22' W 003°07'0 0.0
2018-Aug-09 14:59N 43°22' W 003°07'0 0.0
2018-Aug-09 14:29N 43°22' W 003°07'0 0.0
2018-Aug-09 13:58N 43°22' W 003°07'0 0.0
2018-Aug-09 13:28N 43°22' W 003°07'0 0.0
2018-Aug-09 12:58N 43°22' W 003°07'0 0.0
2018-Aug-09 12:28N 43°22' W 003°07'0 0.0
2018-Aug-09 12:01N 43°22' W 003°07'0 0.0
2018-Aug-09 11:30N 43°22' W 003°07'0 0.0
2018-Aug-09 11:00N 43°22' W 003°07'0 0.0
2018-Aug-09 10:30N 43°22' W 003°07'0 0.0
2018-Aug-09 10:00N 43°22' W 003°07'0 0.0
2018-Aug-09 09:29N 43°22' W 003°07'0 0.0
2018-Aug-09 08:59N 43°22' W 003°07'0 0.0
2018-Aug-09 08:29N 43°22' W 003°07'0 0.0
2018-Aug-09 07:59N 43°22' W 003°07'0 0.0
2018-Aug-09 07:29N 43°22' W 003°07'0 0.1
2018-Aug-09 06:58N 43°22' W 003°07'0 0.1
2018-Aug-09 06:28N 43°22' W 003°07'0 0.1
2018-Aug-09 05:58N 43°22' W 003°07'0 0.0
2018-Aug-09 05:28N 43°22' W 003°07'0 0.0
2018-Aug-09 05:01N 43°22' W 003°07'0 0.0
2018-Aug-09 04:30N 43°22' W 003°07'0 0.0
2018-Aug-09 04:00N 43°22' W 003°07'0 0.0
2018-Aug-09 03:30N 43°22' W 003°07'0 0.0
2018-Aug-09 02:57N 43°22' W 003°07'0 0.0
2018-Aug-09 02:29N 43°22' W 003°07'0 0.0
2018-Aug-09 01:56N 43°22' W 003°07'0 0.0
2018-Aug-09 01:26N 43°22' W 003°07'0 0.0
2018-Aug-09 00:59N 43°22' W 003°07'0 0.0
2018-Aug-09 00:29N 43°22' W 003°07'0 0.0
2018-Aug-08 23:58N 43°22' W 003°07'0 0.0
2018-Aug-08 23:28N 43°22' W 003°07'0 0.3
2018-Aug-08 22:58N 43°22' W 003°07'0 0.0
2018-Aug-08 22:28N 43°22' W 003°07'0 0.0
2018-Aug-08 22:00N 43°22' W 003°07'0 0.0
2018-Aug-08 21:30N 43°22' W 003°07'0 0.0
2018-Aug-08 21:00N 43°22' W 003°07'0 0.0
2018-Aug-08 20:30N 43°22' W 003°07'0 0.0
2018-Aug-08 20:00N 43°22' W 003°07'0 0.0
2018-Aug-08 19:29N 43°22' W 003°07'0 0.0
2018-Aug-08 18:59N 43°22' W 003°07'0 0.0
2018-Aug-08 18:29N 43°22' W 003°07'0 0.0
2018-Aug-08 17:59N 43°22' W 003°07'0 0.0
2018-Aug-08 17:28N 43°22' W 003°07'0 0.0
2018-Aug-08 16:58N 43°22' W 003°07'0 0.0
2018-Aug-08 16:28N 43°22' W 003°07'0 0.0
2018-Aug-08 15:58N 43°22' W 003°07'0 0.0
2018-Aug-08 15:28N 43°22' W 003°07'0 0.0
2018-Aug-08 15:00N 43°22' W 003°07'0 0.0
2018-Aug-08 14:30N 43°22' W 003°07'0 0.0
2018-Aug-08 14:00N 43°22' W 003°07'0 0.0
2018-Aug-08 13:30N 43°22' W 003°07'0 0.0
2018-Aug-08 13:00N 43°22' W 003°07'0 0.0
2018-Aug-08 12:26N 43°22' W 003°07'0 0.0
2018-Aug-08 11:50N 43°22' W 003°07'0 0.0
2018-Aug-08 11:29N 43°22' W 003°07'0 0.0
2018-Aug-08 10:59N 43°22' W 003°07'0 0.0
2018-Aug-08 10:28N 43°22' W 003°07'0 0.0
2018-Aug-08 09:58N 43°22' W 003°07'0 0.0
2018-Aug-08 09:28N 43°22' W 003°07'0 0.0
2018-Aug-08 08:55N 43°22' W 003°07'0 0.0
2018-Aug-08 08:28N 43°22' W 003°07'0 0.0
2018-Aug-08 08:00N 43°22' W 003°07'0 0.0
2018-Aug-08 07:30N 43°22' W 003°07'0 0.0
2018-Aug-08 07:00N 43°22' W 003°07'0 0.0
2018-Aug-08 06:30N 43°22' W 003°07'0 0.0
2018-Aug-08 06:00N 43°22' W 003°07'0 0.0
2018-Aug-08 05:26N 43°22' W 003°07'0 0.0
2018-Aug-08 04:59N 43°22' W 003°07'0 0.0
2018-Aug-08 04:29N 43°22' W 003°07'0 0.0
2018-Aug-08 03:59N 43°22' W 003°07'0 0.0
2018-Aug-08 03:25N 43°22' W 003°07'0 0.0
2018-Aug-08 02:58N 43°22' W 003°07'0 0.0
2018-Aug-08 02:28N 43°22' W 003°07'0 0.0
2018-Aug-08 01:58N 43°22' W 003°07'0 0.0
2018-Aug-08 01:29N 43°22' W 003°07'0 0.0
2018-Aug-08 00:51N 43°22' W 003°07'0 0.0
2018-Aug-08 00:27N 43°22' W 003°07'0 0.0
2018-Aug-07 23:57N 43°22' W 003°07'0 0.1
2018-Aug-07 23:30N 43°22' W 003°07'0 0.4
2018-Aug-07 23:00N 43°22' W 003°07'3 5.7
2018-Aug-07 22:30N 43°25' W 003°10'713.6
2018-Aug-07 22:00N 43°31' W 003°14'714.1
2018-Aug-07 21:31N 43°36' W 003°20'713.3
2018-Aug-07 21:00N 43°38' W 003°29'714.2
2018-Aug-07 20:30N 43°39' W 003°39'5314.3
2018-Aug-07 16:48N 43°45' W 004°52'914.5
2018-Aug-07 16:13N 43°45' W 005°03'314.6
2018-Aug-07 16:00N 43°46' W 005°08'714.6
2018-Aug-07 15:29N 43°46' W 005°18'815.0
2018-Aug-07 14:59N 43°47' W 005°29'714.5
2018-Aug-07 14:28N 43°48' W 005°39'1914.1
2018-Aug-07 13:09N 43°49' W 006°05'313.8
2018-Aug-07 12:56N 43°49' W 006°09'64 1.6
2018-Aug-05 20:37N 44°08' W 007°33'1 6.2
2018-Aug-05 20:27N 44°09' W 007°32'4 6.1
2018-Aug-05 19:51N 44°11' W 007°29'2 5.8
2018-Aug-05 19:30N 44°13' W 007°27'3 5.6
2018-Aug-05 18:59N 44°15' W 007°24'5 5.7
2018-Aug-05 18:06N 44°18' W 007°18'1 5.9
2018-Aug-05 17:57N 44°18' W 007°17'3 5.8
2018-Aug-05 17:28N 44°20' W 007°14'3 5.7
2018-Aug-05 17:00N 44°22' W 007°11'4 5.6
2018-Aug-05 16:20N 44°24' W 007°07'15 5.9
2018-Aug-05 13:47N 44°34' W 006°51'2 5.6
2018-Aug-05 13:30N 44°35' W 006°49'3 5.6
2018-Aug-05 13:00N 44°36' W 006°46'83 8.4
2018-Aug-05 03:09N 45°30' W 005°17'314.6
2018-Aug-05 02:56N 45°32' W 005°13'  

Dump ship's entire track history